Time;durP1;ratioP1;P1;durP2;ratioP2;P2;SDS_P1;SDS_P2;PMS_P1;PMS_P2;Temp;Humidity;BMP_temperature;BMP_pressure;BME280_temperature;BME280_humidity;BME280_pressure;Samples;Min_cycle;Max_cycle;Signal;HPM_P1;HPM_P2
2024/04/18 00:02:04;;;;;;;4.38;2.30;;;6.40;99.90;;;;;;5505682;25;20020;-68
2024/04/18 00:04:29;;;;;;;5.32;3.03;;;6.40;99.90;;;;;;5514703;26;20009;-68
2024/04/18 00:06:55;;;;;;;4.00;2.30;;;6.30;99.90;;;;;;5508016;26;20049;-67
2024/04/18 00:09:20;;;;;;;3.70;2.53;;;6.30;99.90;;;;;;5508580;26;20001;-68
2024/04/18 00:11:46;;;;;;;4.05;1.98;;;6.30;99.90;;;;;;5480969;26;20066;-68
2024/04/18 00:14:11;;;;;;;2.95;2.15;;;6.20;99.90;;;;;;5512564;26;19994;-68
2024/04/18 00:16:37;;;;;;;6.80;2.38;;;6.10;99.90;;;;;;5513845;26;20033;-68
2024/04/18 00:19:02;;;;;;;3.15;2.38;;;6.10;99.90;;;;;;5499172;25;20038;-68
2024/04/18 00:21:29;;;;;;;3.88;2.42;;;6.10;99.90;;;;;;5499572;26;20012;-68
2024/04/18 00:23:54;;;;;;;4.88;2.35;;;6.10;99.90;;;;;;5479434;26;19998;-68
2024/04/18 00:26:20;;;;;;;4.05;2.50;;;6.10;99.90;;;;;;5472477;25;20011;-68
2024/04/18 00:28:46;;;;;;;5.15;2.75;;;6.00;99.90;;;;;;5505056;25;20528;-68
2024/04/18 00:31:11;;;;;;;3.95;2.38;;;6.00;99.90;;;;;;5515986;25;20350;-68
2024/04/18 00:33:37;;;;;;;5.78;2.60;;;6.00;99.90;;;;;;5508245;26;20001;-68
2024/04/18 00:36:05;;;;;;;3.97;2.35;;;5.90;99.90;;;;;;5473562;26;20442;-68
2024/04/18 00:38:31;;;;;;;4.75;2.50;;;5.90;99.90;;;;;;5514268;25;20008;-68
2024/04/18 00:40:56;;;;;;;4.95;2.55;;;5.90;99.90;;;;;;5478279;26;20510;-67
2024/04/18 00:43:22;;;;;;;5.50;2.47;;;5.80;99.90;;;;;;5475087;26;19998;-67
2024/04/18 00:45:47;;;;;;;4.18;3.03;;;5.80;99.90;;;;;;5495030;26;20002;-68
2024/04/18 00:48:13;;;;;;;3.60;2.28;;;5.80;99.90;;;;;;5475761;25;19998;-68
2024/04/18 00:50:39;;;;;;;5.32;2.92;;;5.80;99.90;;;;;;5509676;25;20001;-68
2024/04/18 00:53:05;;;;;;;12.18;3.25;;;5.80;99.90;;;;;;5497166;25;20006;-67
2024/04/18 00:55:33;;;;;;;3.70;2.33;;;5.70;99.90;;;;;;5510563;26;19997;-68
2024/04/18 00:57:58;;;;;;;;;;;5.70;99.90;;;;;;5478270;26;20009;-68
2024/04/18 01:00:24;;;;;;;7.43;2.70;;;5.60;99.90;;;;;;5510039;25;19932;-68
2024/04/18 01:02:50;;;;;;;4.75;2.70;;;5.60;99.90;;;;;;5507403;25;19998;-68
2024/04/18 01:05:16;;;;;;;6.72;3.13;;;5.60;99.90;;;;;;5513227;25;20002;-67
2024/04/18 01:07:42;;;;;;;3.72;2.95;;;5.60;99.90;;;;;;5504933;25;20045;-67
2024/04/18 01:10:07;;;;;;;5.20;2.80;;;5.60;99.90;;;;;;5503388;25;20665;-68
2024/04/18 01:12:33;;;;;;;4.72;2.83;;;5.60;99.90;;;;;;5508456;25;20391;-67
2024/04/18 01:14:58;;;;;;;5.45;3.40;;;5.60;99.90;;;;;;5512147;26;19994;-67
2024/04/18 01:17:24;;;;;;;5.00;2.90;;;5.60;99.90;;;;;;5506401;25;20470;-68
2024/04/18 01:19:50;;;;;;;5.43;2.92;;;5.60;99.90;;;;;;5467124;26;20020;-68
2024/04/18 01:22:16;;;;;;;5.47;3.50;;;5.70;99.90;;;;;;5499415;25;20002;-68
2024/04/18 01:24:42;;;;;;;4.03;3.08;;;5.70;99.90;;;;;;5506521;25;20498;-68
2024/04/18 01:27:08;;;;;;;5.78;3.65;;;5.70;99.90;;;;;;5496980;25;20577;-68
2024/04/18 01:29:33;;;;;;;5.13;3.55;;;5.70;99.90;;;;;;5498014;25;20009;-68
2024/04/18 01:31:59;;;;;;;4.28;3.17;;;5.80;99.90;;;;;;5501437;25;20006;-68
2024/04/18 01:34:24;;;;;;;7.43;4.13;;;5.90;99.90;;;;;;5501410;25;20026;-67
2024/04/18 01:36:51;;;;;;;6.85;3.67;;;5.90;99.90;;;;;;5508787;25;20081;-68
2024/04/18 01:39:17;;;;;;;7.45;3.45;;;5.90;99.90;;;;;;5511777;26;20446;-68
2024/04/18 01:41:42;;;;;;;9.18;4.43;;;6.00;99.90;;;;;;5482300;25;20012;-68
2024/04/18 01:44:08;;;;;;;4.82;3.58;;;6.10;99.90;;;;;;5502724;25;20026;-67
2024/04/18 01:46:34;;;;;;;4.65;3.55;;;6.10;99.90;;;;;;5505092;26;20001;-68
2024/04/18 01:48:59;;;;;;;8.07;4.07;;;6.20;99.90;;;;;;5478259;25;20021;-68
2024/04/18 01:51:25;;;;;;;5.43;3.75;;;6.20;99.90;;;;;;5502609;25;20442;-68
2024/04/18 01:53:50;;;;;;;4.78;3.22;;;6.20;99.90;;;;;;5467424;26;20001;-68
2024/04/18 01:56:16;;;;;;;7.68;4.28;;;6.20;99.90;;;;;;5499538;25;19997;-67
2024/04/18 01:58:42;;;;;;;5.40;3.55;;;6.30;99.90;;;;;;5507851;26;20005;-68
2024/04/18 02:01:07;;;;;;;4.70;3.92;;;6.30;99.90;;;;;;5509329;25;20008;-68
2024/04/18 02:03:33;;;;;;;6.03;4.22;;;6.30;99.90;;;;;;5513965;26;19998;-68
2024/04/18 02:05:58;;;;;;;7.50;4.15;;;6.30;99.90;;;;;;5511054;25;20008;-68
2024/04/18 02:08:24;;;;;;;8.50;4.38;;;6.40;99.90;;;;;;5481244;26;20013;-68
2024/04/18 02:10:50;;;;;;;5.88;3.88;;;6.40;99.90;;;;;;5510748;26;20454;-68
2024/04/18 02:13:16;;;;;;;5.28;4.00;;;6.40;99.90;;;;;;5505958;26;19997;-68
2024/04/18 02:15:41;;;;;;;6.43;4.20;;;6.40;99.90;;;;;;5504499;25;20009;-68
2024/04/18 02:18:07;;;;;;;6.15;4.07;;;6.40;99.90;;;;;;5506741;25;19997;-68
2024/04/18 02:20:33;;;;;;;6.22;3.95;;;6.40;99.90;;;;;;5506890;25;20012;-67
2024/04/18 02:22:59;;;;;;;7.72;4.05;;;6.40;99.90;;;;;;5507742;25;20026;-68
2024/04/18 02:25:24;;;;;;;7.47;4.60;;;6.40;99.90;;;;;;5501551;25;20012;-68
2024/04/18 02:27:50;;;;;;;7.10;4.35;;;6.50;99.90;;;;;;5498860;25;20030;-68
2024/04/18 02:30:15;;;;;;;10.32;4.85;;;6.40;99.90;;;;;;5511834;25;19997;-68
2024/04/18 02:32:41;;;;;;;8.75;4.68;;;6.40;99.90;;;;;;5506604;25;20074;-68
2024/04/18 02:35:07;;;;;;;6.05;3.92;;;6.50;99.90;;;;;;5508381;25;20016;-68
2024/04/18 02:37:33;;;;;;;6.80;3.95;;;6.50;99.90;;;;;;5502252;25;20106;-68
2024/04/18 02:39:59;;;;;;;6.43;3.80;;;6.50;99.90;;;;;;5510212;25;19998;-68
2024/04/18 02:42:25;;;;;;;6.03;4.03;;;6.50;99.90;;;;;;5509033;25;20502;-68
2024/04/18 02:44:51;;;;;;;7.03;4.18;;;6.50;99.90;;;;;;5477943;26;19995;-68
2024/04/18 02:47:17;;;;;;;5.25;4.00;;;6.50;99.90;;;;;;5483128;25;19997;-68
2024/04/18 02:49:42;;;;;;;4.70;3.70;;;6.50;99.90;;;;;;5511132;25;20338;-68
2024/04/18 02:52:08;;;;;;;5.95;3.70;;;6.50;99.90;;;;;;5505684;25;20008;-68
2024/04/18 02:54:33;;;;;;;7.30;3.65;;;6.40;99.90;;;;;;5448221;26;20012;-68
2024/04/18 02:56:59;;;;;;;7.22;3.80;;;6.40;99.90;;;;;;5497876;26;20607;-68
2024/04/18 02:59:25;;;;;;;6.30;3.65;;;6.40;99.90;;;;;;5505738;25;20006;-68
2024/04/18 03:01:51;;;;;;;8.55;4.00;;;6.40;99.90;;;;;;5508889;25;20123;-69
2024/04/18 03:04:17;;;;;;;6.55;3.80;;;6.40;99.90;;;;;;5507531;26;20010;-68
2024/04/18 03:06:45;;;;;;;6.50;4.18;;;6.40;99.90;;;;;;5502926;25;20017;-68
2024/04/18 03:09:12;;;;;;;5.53;3.70;;;6.40;99.90;;;;;;5493617;25;20091;-68
2024/04/18 03:11:37;;;;;;;7.15;4.15;;;6.40;99.90;;;;;;5503994;25;20002;-68
2024/04/18 03:14:03;;;;;;;9.80;4.18;;;6.40;99.90;;;;;;5508707;25;20005;-68
2024/04/18 03:16:29;;;;;;;7.78;4.60;;;6.40;99.90;;;;;;5512887;25;20002;-68
2024/04/18 03:18:54;;;;;;;6.28;4.32;;;6.40;99.90;;;;;;5497835;25;20540;-68
2024/04/18 03:21:20;;;;;;;5.88;4.03;;;6.40;99.90;;;;;;5509404;26;20567;-68
2024/04/18 03:23:45;;;;;;;9.30;4.22;;;6.40;99.90;;;;;;5506892;25;20002;-68
2024/04/18 03:26:11;;;;;;;6.88;4.32;;;6.50;99.90;;;;;;5466259;26;19997;-68
2024/04/18 03:28:37;;;;;;;6.32;4.55;;;6.50;99.90;;;;;;5504446;26;20018;-68
2024/04/18 03:31:03;;;;;;;11.23;4.72;;;6.40;99.90;;;;;;5512940;26;20088;-68
2024/04/18 03:33:29;;;;;;;8.60;5.15;;;6.40;99.90;;;;;;5505896;26;19990;-68
2024/04/18 03:35:54;;;;;;;10.65;5.10;;;6.40;99.90;;;;;;5513929;26;19994;-68
2024/04/18 03:38:20;;;;;;;6.85;4.47;;;6.40;99.90;;;;;;5499061;25;20478;-68
2024/04/18 03:40:58;;;;;;;9.02;5.10;;;6.50;99.90;;;;;;5469035;26;20006;-68
2024/04/18 03:43:24;;;;;;;10.07;4.78;;;6.40;99.90;;;;;;5499050;26;20014;-68
2024/04/18 03:45:58;;;;;;;8.38;4.95;;;6.40;99.90;;;;;;5468416;26;20033;-68
2024/04/18 03:48:23;;;;;;;8.20;4.95;;;6.40;99.90;;;;;;5484418;26;19993;-68
2024/04/18 03:50:49;;;;;;;8.82;5.45;;;6.40;99.90;;;;;;5485709;26;19993;-68
2024/04/18 03:53:14;;;;;;;8.35;4.80;;;6.40;99.90;;;;;;5511044;25;20052;-68
2024/04/18 03:55:40;;;;;;;6.90;4.40;;;6.30;99.90;;;;;;5503621;25;20586;-68
2024/04/18 03:58:06;;;;;;;9.05;4.63;;;6.30;99.90;;;;;;5510150;25;20001;-68
2024/04/18 04:00:32;;;;;;;7.35;3.97;;;6.20;99.90;;;;;;5516797;25;20013;-68
2024/04/18 04:02:57;;;;;;;9.30;4.03;;;6.20;99.90;;;;;;5511358;25;20013;-68
2024/04/18 04:05:23;;;;;;;8.88;4.35;;;6.30;99.90;;;;;;5510626;25;20016;-69
2024/04/18 04:07:49;;;;;;;7.00;3.78;;;6.30;99.90;;;;;;5476239;26;20006;-68
2024/04/18 04:10:14;;;;;;;6.90;4.45;;;6.30;99.90;;;;;;5504962;26;20450;-68
2024/04/18 04:12:40;;;;;;;5.85;3.95;;;6.20;99.90;;;;;;5477816;25;20043;-68
2024/04/18 04:15:06;;;;;;;6.50;4.20;;;6.20;99.90;;;;;;5501318;25;20774;-68
2024/04/18 04:17:32;;;;;;;6.28;4.45;;;6.20;99.90;;;;;;5512605;25;19997;-65
2024/04/18 04:19:57;;;;;;;8.05;4.57;;;6.20;99.90;;;;;;5480091;26;20009;-65
2024/04/18 04:22:23;;;;;;;6.72;4.22;;;6.20;99.90;;;;;;5504254;25;20130;-65
2024/04/18 04:24:49;;;;;;;5.18;4.03;;;6.20;99.90;;;;;;5505469;25;20020;-65
2024/04/18 04:27:15;;;;;;;7.28;4.47;;;6.10;99.90;;;;;;5496929;25;20013;-65
2024/04/18 04:29:41;;;;;;;7.65;4.53;;;6.10;99.90;;;;;;5478997;26;19997;-65
2024/04/18 04:32:21;;;;;;;6.97;4.78;;;6.10;99.90;;;;;;5507604;25;20005;-65
2024/04/18 04:34:51;;;;;;;7.70;4.03;;;6.10;99.90;;;;;;5504005;25;19998;-65
2024/04/18 04:37:20;;;;;;;8.43;4.25;;;6.10;99.90;;;;;;5507615;25;20076;-65
2024/04/18 04:39:49;;;;;;;8.18;4.65;;;6.10;99.90;;;;;;5513442;25;20077;-66
2024/04/18 04:42:14;;;;;;;7.43;4.88;;;6.10;99.90;;;;;;5494775;26;19999;-65
2024/04/18 04:44:40;;;;;;;8.57;5.03;;;6.10;99.90;;;;;;5504259;25;20334;-65
2024/04/18 04:47:07;;;;;;;8.07;4.93;;;6.10;99.90;;;;;;5510235;25;20040;-65
2024/04/18 04:49:33;;;;;;;10.30;5.72;;;6.10;99.90;;;;;;5467989;26;20774;-65
2024/04/18 04:52:00;;;;;;;11.13;4.63;;;6.10;99.90;;;;;;5503926;25;19993;-65
2024/04/18 04:54:25;;;;;;;7.35;4.72;;;6.10;99.90;;;;;;5507403;25;20020;-65
2024/04/18 04:56:51;;;;;;;10.75;5.13;;;6.10;99.90;;;;;;5507399;25;20012;-65
2024/04/18 04:59:16;;;;;;;7.97;4.68;;;6.20;99.90;;;;;;5512647;25;20002;-65
2024/04/18 05:01:42;;;;;;;6.57;4.28;;;6.20;99.90;;;;;;5500841;25;20013;-65
2024/04/18 05:04:08;;;;;;;6.38;4.47;;;6.30;99.90;;;;;;5510768;26;20027;-65
2024/04/18 05:06:33;;;;;;;8.60;4.70;;;6.30;99.90;;;;;;5513280;26;20713;-65
2024/04/18 05:08:59;;;;;;;7.85;4.97;;;6.30;99.90;;;;;;5503234;26;19993;-65
2024/04/18 05:11:24;;;;;;;11.00;4.63;;;6.30;99.90;;;;;;5515655;26;20747;-65
2024/04/18 05:13:50;;;;;;;10.02;4.68;;;6.30;99.90;;;;;;5478528;26;20028;-65
2024/04/18 05:16:15;;;;;;;6.72;4.50;;;6.30;99.90;;;;;;5505426;26;20403;-65
2024/04/18 05:18:41;;;;;;;10.00;5.53;;;6.30;99.90;;;;;;5476642;26;20010;-65
2024/04/18 05:21:07;;;;;;;6.57;4.47;;;6.30;99.90;;;;;;5505483;25;19993;-65
2024/04/18 05:23:32;;;;;;;8.45;5.20;;;6.30;99.90;;;;;;5511799;25;20360;-65
2024/04/18 05:25:58;;;;;;;9.35;4.85;;;6.30;99.90;;;;;;5497291;25;20016;-66
2024/04/18 05:28:40;;;;;;;7.32;5.10;;;6.40;99.90;;;;;;5497508;25;20000;-65
2024/04/18 05:31:06;;;;;;;9.73;5.57;;;6.40;99.90;;;;;;5505028;25;20001;-65
2024/04/18 05:33:33;;;;;;;13.63;6.43;;;6.40;99.90;;;;;;5509703;25;20773;-66
2024/04/18 05:35:59;;;;;;;9.15;5.82;;;6.50;99.90;;;;;;5510041;25;20013;-66
2024/04/18 05:38:25;;;;;;;10.45;6.30;;;6.60;99.90;;;;;;5501727;25;20019;-66
2024/04/18 05:40:50;;;;;;;15.07;6.43;;;6.60;99.90;;;;;;5503562;25;20005;-66
2024/04/18 05:43:16;;;;;;;9.98;5.88;;;6.70;99.90;;;;;;5476527;26;20029;-66
2024/04/18 05:45:47;;;;;;;8.98;5.78;;;6.70;99.90;;;;;;5504777;25;19998;-66
2024/04/18 05:48:12;;;;;;;12.98;6.97;;;6.70;99.90;;;;;;5511226;25;20438;-66
2024/04/18 05:50:38;;;;;;;12.82;6.97;;;6.80;99.90;;;;;;5502530;25;20051;-65
2024/04/18 05:53:04;;;;;;;15.20;7.57;;;6.80;99.90;;;;;;5509644;25;19994;-65
2024/04/18 05:55:30;;;;;;;13.55;7.20;;;6.80;99.90;;;;;;5505046;25;20001;-66
2024/04/18 05:57:55;;;;;;;14.35;7.82;;;6.80;99.90;;;;;;5509124;25;20359;-66
2024/04/18 06:00:21;;;;;;;14.07;7.10;;;6.90;99.90;;;;;;5503551;25;20022;-66
2024/04/18 06:02:48;;;;;;;13.23;7.93;;;6.90;99.90;;;;;;5505317;25;20001;-66
2024/04/18 06:05:13;;;;;;;12.23;6.55;;;7.00;99.90;;;;;;5515578;25;20024;-66
2024/04/18 06:07:39;;;;;;;12.95;7.38;;;7.00;99.90;;;;;;5483852;26;20712;-66
2024/04/18 06:10:05;;;;;;;12.85;7.38;;;7.00;99.90;;;;;;5471617;26;19998;-66
2024/04/18 06:12:31;;;;;;;12.75;7.63;;;7.10;99.90;;;;;;5458790;26;20018;-66
2024/04/18 06:14:57;;;;;;;12.88;6.88;;;7.10;99.90;;;;;;5473603;26;20406;-66
2024/04/18 06:17:23;;;;;;;11.90;6.68;;;7.10;99.90;;;;;;5442918;26;19994;-66
2024/04/18 06:19:49;;;;;;;16.58;6.95;;;7.10;99.90;;;;;;5489398;26;20005;-66
2024/04/18 06:22:15;;;;;;;12.80;7.32;;;7.10;99.90;;;;;;5486260;26;19994;-66
2024/04/18 06:24:41;;;;;;;10.75;6.72;;;7.10;99.90;;;;;;5475160;26;20005;-66
2024/04/18 06:27:07;;;;;;;14.52;6.85;;;7.10;99.90;;;;;;5467044;26;19994;-66
2024/04/18 06:29:33;;;;;;;10.52;6.47;;;7.10;99.90;;;;;;5440194;26;20031;-66
2024/04/18 06:31:58;;;;;;;12.82;6.82;;;7.00;99.90;;;;;;5470643;26;20001;-66
2024/04/18 06:34:24;;;;;;;14.68;7.65;;;7.10;99.90;;;;;;5488173;26;20800;-66
2024/04/18 06:36:50;;;;;;;11.98;7.35;;;7.10;99.90;;;;;;5469183;26;20001;-66
2024/04/18 06:39:15;;;;;;;13.57;7.35;;;7.10;99.90;;;;;;5481010;26;20664;-66
2024/04/18 06:41:41;;;;;;;13.90;8.13;;;7.10;99.90;;;;;;5480686;26;19997;-66
2024/04/18 06:44:07;;;;;;;12.73;7.32;;;7.20;99.90;;;;;;5440731;26;20002;-65
2024/04/18 06:46:34;;;;;;;14.90;6.78;;;7.20;99.90;;;;;;5475802;26;20762;-66
2024/04/18 06:49:00;;;;;;;14.45;7.05;;;7.30;99.90;;;;;;5441186;26;20065;-66
2024/04/18 06:51:26;;;;;;;12.75;6.80;;;7.30;99.90;;;;;;5468709;26;20899;-66
2024/04/18 06:53:51;;;;;;;10.00;5.97;;;7.30;99.90;;;;;;5466742;26;20001;-66
2024/04/18 06:56:17;;;;;;;13.10;6.40;;;7.40;99.90;;;;;;5468515;26;20005;-66
2024/04/18 06:58:42;;;;;;;15.23;7.03;;;7.40;99.90;;;;;;5500957;25;20001;-66
2024/04/18 07:01:08;;;;;;;11.93;5.90;;;7.40;99.90;;;;;;5503387;26;20331;-66
2024/04/18 07:03:34;;;;;;;10.55;6.55;;;7.40;99.90;;;;;;5509483;25;19993;-66
2024/04/18 07:05:59;;;;;;;10.02;6.32;;;7.50;99.90;;;;;;5509376;25;20758;-66
2024/04/18 07:08:25;;;;;;;11.98;5.75;;;7.50;99.90;;;;;;5502136;25;20008;-65
2024/04/18 07:10:51;;;;;;;9.63;5.43;;;7.50;99.90;;;;;;5507323;25;20471;-66
2024/04/18 07:13:17;;;;;;;10.45;5.68;;;7.60;99.90;;;;;;5506312;26;20007;-66
2024/04/18 07:15:43;;;;;;;7.20;4.68;;;7.60;99.90;;;;;;5493116;25;20001;-66
2024/04/18 07:18:08;;;;;;;9.90;5.18;;;7.70;99.90;;;;;;5504987;25;20405;-66
2024/04/18 07:20:34;;;;;;;10.10;6.05;;;7.80;99.90;;;;;;5515706;25;20009;-66
2024/04/18 07:22:59;;;;;;;13.20;5.95;;;7.80;99.90;;;;;;5505862;26;20067;-66
2024/04/18 07:25:25;;;;;;;9.32;4.78;;;7.90;99.90;;;;;;5510804;25;20461;-66
2024/04/18 07:27:51;;;;;;;6.88;4.07;;;8.00;99.90;;;;;;5517678;26;20517;-66
2024/04/18 07:30:16;;;;;;;9.10;4.55;;;8.00;99.90;;;;;;5511441;25;19997;-66
2024/04/18 07:32:42;;;;;;;14.25;5.72;;;8.00;99.90;;;;;;5507770;25;20012;-66
2024/04/18 07:35:08;;;;;;;9.27;4.28;;;8.10;99.90;;;;;;5517344;25;20001;-66
2024/04/18 07:37:33;;;;;;;9.35;4.93;;;8.20;99.90;;;;;;5516913;25;20461;-66
2024/04/18 07:40:09;;;;;;;8.80;4.70;;;8.20;99.90;;;;;;5507540;25;20008;-66
2024/04/18 07:42:34;;;;;;;11.13;5.20;;;8.30;99.90;;;;;;5480744;25;20029;-63
2024/04/18 07:45:00;;;;;;;13.25;5.32;;;8.40;99.90;;;;;;5512617;25;20771;-66
2024/04/18 07:47:26;;;;;;;8.43;4.78;;;8.50;99.90;;;;;;5483543;25;20034;-66
2024/04/18 07:49:51;;;;;;;11.40;5.45;;;8.50;99.90;;;;;;5480916;26;20013;-66
2024/04/18 07:52:17;;;;;;;8.93;4.47;;;8.60;99.90;;;;;;5503749;25;20001;-66
2024/04/18 07:54:42;;;;;;;11.95;4.65;;;8.70;99.90;;;;;;5511996;25;20005;-66
2024/04/18 07:57:08;;;;;;;7.72;4.35;;;8.70;99.90;;;;;;5511410;25;20042;-66
2024/04/18 07:59:33;;;;;;;8.50;4.40;;;8.80;99.90;;;;;;5513322;25;19997;-66
2024/04/18 08:01:59;;;;;;;5.68;3.90;;;8.70;99.90;;;;;;5482011;26;20074;-66
2024/04/18 08:04:25;;;;;;;6.20;4.00;;;8.80;99.90;;;;;;5504825;25;20019;-66
2024/04/18 08:06:52;;;;;;;7.20;4.18;;;8.70;99.90;;;;;;5473759;26;20010;-66
2024/04/18 08:09:17;;;;;;;8.82;3.85;;;8.80;99.90;;;;;;5508103;25;19998;-66
2024/04/18 08:11:43;;;;;;;5.50;3.67;;;8.90;99.90;;;;;;5503118;25;20469;-66
2024/04/18 08:14:08;;;;;;;9.45;3.75;;;9.00;99.90;;;;;;5512918;25;20012;-66
2024/04/18 08:16:34;;;;;;;5.10;3.15;;;9.20;99.90;;;;;;5504223;25;20009;-66
2024/04/18 08:18:59;;;;;;;8.57;3.40;;;9.20;99.90;;;;;;5502604;25;20323;-66
2024/04/18 08:21:27;;;;;;;6.30;3.35;;;9.30;99.90;;;;;;5513968;25;19993;-66
2024/04/18 08:23:52;;;;;;;7.20;3.50;;;9.30;99.90;;;;;;5515792;25;19997;-66
2024/04/18 08:26:18;;;;;;;6.03;3.83;;;9.50;99.90;;;;;;5506119;25;20324;-66
2024/04/18 08:28:44;;;;;;;10.68;4.28;;;9.70;99.90;;;;;;5476835;26;19997;-66
2024/04/18 08:31:09;;;;;;;5.38;2.80;;;9.80;99.90;;;;;;5508325;25;20094;-66
2024/04/18 08:33:35;;;;;;;7.55;3.40;;;9.90;99.90;;;;;;5507351;25;20003;-66
2024/04/18 08:36:01;;;;;;;4.38;2.80;;;10.00;99.90;;;;;;5511962;26;19993;-66
2024/04/18 08:38:26;;;;;;;5.75;2.78;;;10.00;98.50;;;;;;5508853;25;20012;-66
2024/04/18 08:40:52;;;;;;;4.28;2.42;;;10.00;98.90;;;;;;5512587;25;20009;-66
2024/04/18 08:43:18;;;;;;;2.90;2.20;;;9.90;98.80;;;;;;5470671;25;20005;-66
2024/04/18 08:45:45;;;;;;;5.65;2.47;;;9.80;98.40;;;;;;5481552;26;20034;-66
2024/04/18 08:48:12;;;;;;;4.50;2.35;;;9.80;98.80;;;;;;5500333;25;20042;-66
2024/04/18 08:50:40;;;;;;;7.20;2.63;;;9.70;98.70;;;;;;5511477;25;20854;-66
2024/04/18 08:53:06;;;;;;;4.13;1.65;;;9.70;98.70;;;;;;5500570;26;19994;-66
2024/04/18 08:55:35;;;;;;;2.00;1.48;;;9.80;97.90;;;;;;5508112;25;19993;-66
2024/04/18 08:58:05;;;;;;;4.75;2.22;;;9.80;96.80;;;;;;5504622;25;19993;-66
2024/04/18 09:00:32;;;;;;;2.10;1.52;;;9.90;97.30;;;;;;5511099;26;20026;-66
2024/04/18 09:02:59;;;;;;;3.00;1.95;;;10.00;97.50;;;;;;5498767;25;20014;-66
2024/04/18 09:05:24;;;;;;;2.55;1.83;;;10.10;97.50;;;;;;5504524;25;20009;-66
2024/04/18 09:07:51;;;;;;;2.85;1.70;;;10.10;96.90;;;;;;5502911;25;19997;-66
2024/04/18 09:10:21;;;;;;;3.47;2.03;;;10.20;97.10;;;;;;5509188;25;20001;-66
2024/04/18 09:12:53;;;;;;;5.53;2.45;;;10.40;97.20;;;;;;5479116;26;20284;-66
2024/04/18 09:15:21;;;;;;;4.10;2.40;;;10.50;96.80;;;;;;5505413;26;20016;-66
2024/04/18 09:18:03;;;;;;;4.63;2.20;;;10.40;95.90;;;;;;5506676;25;20041;-66
2024/04/18 09:20:30;;;;;;;4.53;2.28;;;10.40;96.60;;;;;;5502120;25;19995;-66
2024/04/18 09:22:56;;;;;;;3.28;2.30;;;10.60;97.20;;;;;;5509956;25;20458;-66
2024/04/18 09:25:22;;;;;;;6.25;2.08;;;10.60;97.20;;;;;;5503378;25;20025;-66
2024/04/18 09:27:47;;;;;;;3.08;1.85;;;10.80;97.40;;;;;;5478536;26;20008;-66
2024/04/18 09:30:14;;;;;;;4.32;2.40;;;10.90;96.60;;;;;;5501447;25;20013;-66
2024/04/18 09:32:41;;;;;;;4.68;1.73;;;10.70;95.90;;;;;;5479958;25;20087;-66
2024/04/18 09:35:08;;;;;;;3.63;2.17;;;10.70;95.70;;;;;;5510677;25;20736;-66
2024/04/18 09:37:37;;;;;;;2.30;1.70;;;10.80;96.50;;;;;;5510726;25;20008;-66
2024/04/18 09:40:06;;;;;;;4.10;1.45;;;11.00;96.80;;;;;;5475639;26;20073;-66
2024/04/18 09:42:40;;;;;;;2.22;1.77;;;11.00;96.60;;;;;;5502434;25;20477;-66
2024/04/18 09:45:10;;;;;;;2.53;1.67;;;11.20;96.80;;;;;;5505001;25;20005;-66
2024/04/18 09:47:38;;;;;;;1.58;1.40;;;11.20;95.10;;;;;;5501792;25;20001;-66
2024/04/18 09:50:04;;;;;;;2.63;1.77;;;11.10;95.40;;;;;;5510472;25;19998;-66
2024/04/18 09:52:30;;;;;;;4.63;2.20;;;11.20;95.80;;;;;;5498102;25;20312;-66
2024/04/18 09:54:56;;;;;;;3.70;1.73;;;11.20;95.00;;;;;;5502873;25;20017;-66
2024/04/18 09:57:23;;;;;;;4.53;2.10;;;11.20;95.70;;;;;;5482310;26;20012;-66
2024/04/18 09:59:51;;;;;;;5.68;1.20;;;11.30;94.30;;;;;;5478802;26;20001;-66
2024/04/18 10:02:17;;;;;;;3.03;1.02;;;11.30;93.00;;;;;;5472742;26;20074;-66
2024/04/18 10:04:43;;;;;;;2.47;1.23;;;11.50;93.20;;;;;;5507953;26;20017;-66
2024/04/18 10:07:13;;;;;;;2.88;1.70;;;11.50;93.60;;;;;;5477065;26;20014;-66
2024/04/18 10:09:39;;;;;;;2.80;1.35;;;11.50;93.30;;;;;;5499834;26;20008;-66
2024/04/18 10:12:08;;;;;;;1.80;1.02;;;11.50;93.20;;;;;;5502729;25;20486;-66
2024/04/18 10:14:36;;;;;;;2.28;1.67;;;11.60;92.80;;;;;;5497997;26;20001;-66
2024/04/18 10:17:03;;;;;;;1.75;1.13;;;11.80;93.90;;;;;;5502620;25;19997;-66
2024/04/18 10:19:30;;;;;;;1.90;1.20;;;11.90;93.60;;;;;;5505392;26;20001;-66
2024/04/18 10:21:57;;;;;;;1.23;0.85;;;12.00;93.80;;;;;;5502872;26;20600;-66
2024/04/18 10:24:33;;;;;;;2.05;1.20;;;12.20;93.00;;;;;;5499634;25;20038;-66
2024/04/18 10:27:00;;;;;;;4.72;1.30;;;12.50;92.60;;;;;;5507440;26;20021;-67
2024/04/18 10:29:27;;;;;;;2.23;1.30;;;12.90;93.00;;;;;;5512489;25;20007;-66
2024/04/18 10:31:59;;;;;;;2.38;0.95;;;13.20;92.50;;;;;;5496656;25;20274;-66
2024/04/18 10:34:28;;;;;;;2.08;0.70;;;13.60;91.10;;;;;;5503978;25;20016;-66
2024/04/18 10:36:56;;;;;;;3.30;0.85;;;13.80;91.10;;;;;;5510088;25;20053;-66
2024/04/18 10:39:43;;;;;;;1.90;0.85;;;13.90;90.60;;;;;;5491720;25;20012;-67
2024/04/18 10:42:10;;;;;;;4.22;1.13;;;14.10;91.20;;;;;;5505123;25;19998;-66
2024/04/18 10:44:39;;;;;;;4.75;1.35;;;14.00;91.90;;;;;;5473888;25;20124;-66
2024/04/18 10:47:06;;;;;;;1.45;0.70;;;14.10;90.60;;;;;;5509465;25;20001;-66
2024/04/18 10:49:32;;;;;;;2.15;0.63;;;14.10;90.40;;;;;;5511214;25;20069;-66
2024/04/18 10:51:59;;;;;;;2.72;0.70;;;13.90;87.70;;;;;;5503130;26;20052;-66
2024/04/18 10:54:25;;;;;;;2.80;1.08;;;13.60;88.00;;;;;;5476111;25;20002;-67
2024/04/18 10:56:51;;;;;;;2.28;1.00;;;13.50;90.20;;;;;;5505084;25;20012;-66
2024/04/18 10:59:17;;;;;;;3.63;1.02;;;13.70;90.70;;;;;;5502371;26;20005;-67
2024/04/18 11:01:43;;;;;;;2.33;1.10;;;13.60;90.60;;;;;;5504460;26;19998;-66
2024/04/18 11:04:11;;;;;;;3.13;1.08;;;13.60;91.10;;;;;;5483425;26;20012;-66
2024/04/18 11:06:38;;;;;;;3.15;0.80;;;13.60;90.60;;;;;;5482410;26;20086;-66
2024/04/18 11:09:04;;;;;;;2.08;0.90;;;13.60;90.90;;;;;;5507017;25;20013;-66
2024/04/18 11:11:32;;;;;;;4.18;1.17;;;13.50;89.30;;;;;;5505831;25;20005;-66
2024/04/18 11:13:59;;;;;;;2.20;1.17;;;13.20;88.60;;;;;;5510368;25;20037;-67
2024/04/18 11:16:26;;;;;;;1.27;1.00;;;13.00;89.10;;;;;;5504987;25;20017;-66
2024/04/18 11:18:55;;;;;;;3.22;1.40;;;13.00;89.80;;;;;;5510422;25;19997;-66
2024/04/18 11:21:20;;;;;;;2.70;1.13;;;13.00;89.50;;;;;;5508050;26;20001;-67
2024/04/18 11:23:55;;;;;;;2.33;1.45;;;13.10;88.40;;;;;;5505260;25;20652;-66
2024/04/18 11:26:21;;;;;;;4.47;1.65;;;12.80;90.20;;;;;;5514618;25;20008;-67
2024/04/18 11:28:49;;;;;;;2.38;1.40;;;12.80;90.50;;;;;;5481895;26;20038;-67
2024/04/18 11:31:14;;;;;;;5.00;2.22;;;12.80;90.60;;;;;;5509754;25;20009;-67
2024/04/18 11:33:40;;;;;;;5.35;2.03;;;12.90;91.20;;;;;;5507038;25;20020;-67
2024/04/18 11:36:07;;;;;;;5.05;2.08;;;12.70;90.90;;;;;;5504469;25;19995;-67
2024/04/18 11:38:34;;;;;;;4.75;1.75;;;12.70;91.00;;;;;;5510789;25;19997;-67
2024/04/18 11:41:00;;;;;;;6.15;2.05;;;12.70;91.60;;;;;;5510183;25;20126;-67
2024/04/18 11:43:25;;;;;;;6.70;2.17;;;12.50;91.10;;;;;;5515989;26;19997;-67
2024/04/18 11:45:51;;;;;;;4.20;2.20;;;12.50;91.90;;;;;;5516683;25;20029;-67
2024/04/18 11:48:16;;;;;;;7.28;2.00;;;12.50;92.20;;;;;;5511780;25;20012;-67
2024/04/18 11:50:42;;;;;;;7.80;2.42;;;12.70;91.70;;;;;;5520655;25;20013;-67
2024/04/18 11:53:09;;;;;;;4.18;1.73;;;12.70;91.30;;;;;;5502550;25;19994;-67
2024/04/18 11:55:35;;;;;;;4.85;1.92;;;12.80;90.70;;;;;;5481118;25;20831;-67
2024/04/18 11:58:02;;;;;;;3.88;1.67;;;12.80;89.70;;;;;;5501453;25;19998;-67
2024/04/18 12:00:29;;;;;;;2.30;1.60;;;12.90;90.90;;;;;;5513344;25;20001;-67
2024/04/18 12:02:55;;;;;;;5.78;2.03;;;12.90;90.80;;;;;;5504502;25;20786;-67
2024/04/18 12:05:21;;;;;;;2.78;1.17;;;13.00;91.40;;;;;;5503237;25;20358;-67
2024/04/18 12:07:47;;;;;;;4.40;1.95;;;13.10;91.10;;;;;;5500089;25;20025;-67
2024/04/18 12:10:13;;;;;;;9.60;2.40;;;13.00;90.50;;;;;;5504726;25;20082;-67
2024/04/18 12:12:39;;;;;;;3.33;1.92;;;13.10;91.00;;;;;;5512912;25;20009;-67
2024/04/18 12:15:04;;;;;;;7.38;2.55;;;13.30;92.00;;;;;;5501867;26;20767;-67
2024/04/18 12:17:30;;;;;;;8.00;2.45;;;13.40;91.60;;;;;;5473887;26;20016;-66
2024/04/18 12:19:56;;;;;;;5.28;1.80;;;13.60;91.70;;;;;;5512220;26;20034;-67
2024/04/18 12:22:21;;;;;;;3.08;1.83;;;13.70;90.80;;;;;;5514371;25;20001;-67
2024/04/18 12:24:47;;;;;;;4.50;2.38;;;13.80;91.50;;;;;;5513782;25;20031;-67
2024/04/18 12:27:12;;;;;;;3.85;1.85;;;14.50;92.10;;;;;;5509971;26;20395;-67
2024/04/18 12:29:38;;;;;;;6.10;1.73;;;15.40;91.10;;;;;;5513199;25;19997;-67
2024/04/18 12:32:04;;;;;;;3.60;1.85;;;16.00;90.80;;;;;;5477830;26;20001;-67
2024/04/18 12:34:30;;;;;;;6.10;2.33;;;16.30;85.10;;;;;;5506135;25;20374;-67
2024/04/18 12:36:56;;;;;;;5.40;1.65;;;16.70;87.60;;;;;;5460202;26;20582;-67
2024/04/18 12:39:22;;;;;;;4.03;1.40;;;17.40;83.50;;;;;;5499333;25;20748;-67
2024/04/18 12:41:48;;;;;;;5.07;1.80;;;17.20;82.00;;;;;;5512599;25;20004;-67
2024/04/18 12:44:14;;;;;;;2.03;1.42;;;17.00;85.10;;;;;;5505317;25;20016;-67
2024/04/18 12:46:40;;;;;;;6.30;2.30;;;16.80;84.40;;;;;;5505635;25;20486;-67
2024/04/18 12:49:06;;;;;;;8.98;2.90;;;16.40;83.50;;;;;;5494536;26;19994;-69